Time;durP1;ratioP1;P1;durP2;ratioP2;P2;SDS_P1;SDS_P2;PMS_P1;PMS_P2;Temp;Humidity;BMP_temperature;BMP_pressure;BME280_temperature;BME280_humidity;BME280_pressure;Samples;Min_cycle;Max_cycle;Signal;HPM_P1;HPM_P2
2024/01/09 00:01:16;;;;;;;;;;;-2.70;49.70;;;-4.86;57.09;103391.03;12248260;19;19929;-87
2024/01/09 00:05:18;;;;;;;;;;;-2.70;49.70;;;-4.83;57.05;103403.94;12246834;19;19929;-86
2024/01/09 00:09:19;;;;;;;;;;;-2.70;49.70;;;-4.81;57.08;103411.66;12247122;19;19923;-87
2024/01/09 00:13:21;;;;;;;;;;;-2.70;49.70;;;-4.95;56.95;103399.06;12247160;19;19923;-86
2024/01/09 00:17:22;;;;;;;;;;;-2.80;49.70;;;-5.22;57.13;103367.06;12245727;19;19922;-86
2024/01/09 00:21:24;;;;;;;;;;;-2.60;49.80;;;-4.95;57.22;103416.91;12247381;19;19918;-86
2024/01/09 00:25:25;;;;;;;;;;;-2.90;49.80;;;-4.93;57.08;103438.25;12246429;19;19915;-86
2024/01/09 00:29:27;;;;;;;;;;;-2.80;49.80;;;-4.99;57.14;103426.88;12247078;19;19919;-86
2024/01/09 00:33:29;;;;;;;;;;;-2.80;49.80;;;-4.96;57.16;103442.31;12246547;19;19926;-86
2024/01/09 00:37:30;;;;;;;;;;;-2.90;49.80;;;-5.25;57.09;103400.03;12246001;19;19911;-87
2024/01/09 00:41:32;;;;;;;;;;;-2.90;49.70;;;-5.03;57.20;103441.09;12245198;19;19923;-86
2024/01/09 00:45:33;;;;;;;;;;;-2.90;49.80;;;-5.13;57.07;103419.38;12244765;19;19922;-86
2024/01/09 00:49:35;;;;;;;;;;;-3.00;49.70;;;-5.25;57.09;103407.66;12244872;19;20283;-86
2024/01/09 00:53:36;;;;;;;;;;;-3.00;49.70;;;-5.10;57.10;103433.94;12255517;19;19922;-86
2024/01/09 00:57:38;;;;;;;;;;;-3.00;50.10;;;-5.09;57.11;103447.56;12253781;19;20250;-86
2024/01/09 01:01:39;;;;;;;;;;;-3.00;49.80;;;-5.11;57.18;103450.00;12257258;19;19915;-87
2024/01/09 01:05:41;;;;;;;;;;;-2.90;49.80;;;-5.14;57.12;103448.16;12255810;19;19924;-86
2024/01/09 01:09:42;;;;;;;;;;;-3.10;49.70;;;-5.48;57.08;103397.13;12256310;19;19925;-86
2024/01/09 01:13:44;;;;;;;;;;;-3.10;49.70;;;-5.34;57.12;103419.09;12255906;19;19926;-86
2024/01/09 01:17:45;;;;;;;;;;;-3.10;49.70;;;-5.20;57.11;103449.53;12254339;19;19910;-86
2024/01/09 01:21:47;;;;;;;;;;;-3.10;49.80;;;-5.23;57.16;103445.16;12255111;19;19926;-87
2024/01/09 01:25:48;;;;;;;;;;;-3.10;49.70;;;-5.57;57.16;103387.31;12254998;19;19982;-86
2024/01/09 01:29:50;;;;;;;;;;;-3.20;49.70;;;-5.39;57.18;103443.44;12255882;19;19923;-86
2024/01/09 01:33:52;;;;;;;;;;;-3.20;49.70;;;-5.60;57.04;103396.44;12255819;19;19915;-86
2024/01/09 01:37:53;;;;;;;;;;;-2.90;49.90;;;-5.34;57.10;103441.16;12252775;19;19926;-87
2024/01/09 01:41:54;;;;;;;;;;;-3.20;49.70;;;-5.41;57.17;103434.84;12255730;19;19923;-86
2024/01/09 01:45:56;;;;;;;;;;;-3.30;49.70;;;-5.76;56.94;103386.22;12254262;19;19911;-86
2024/01/09 01:49:58;;;;;;;;;;;-3.30;49.70;;;-5.63;57.10;103420.06;12255789;19;19923;-86
2024/01/09 01:53:59;;;;;;;;;;;-3.40;49.50;;;-6.11;56.98;103350.44;12253761;19;19911;-86
2024/01/09 01:58:02;;;;;;;;;;;-3.40;49.50;;;-6.19;56.88;103348.28;12251454;19;19923;-86
2024/01/09 02:02:13;;;;;;;;;;;-3.50;49.50;;;-6.08;56.93;103370.94;12253092;19;19918;-86
2024/01/09 02:06:16;;;;;;;;;;;-3.50;49.50;;;-5.89;56.95;103412.66;12251555;19;19922;-87
2024/01/09 02:10:18;;;;;;;;;;;-3.50;49.50;;;-5.86;56.89;103428.09;12252293;19;19918;-87
2024/01/09 02:14:19;;;;;;;;;;;-3.60;49.50;;;-5.75;56.98;103449.03;12254545;19;19930;-86
2024/01/09 02:18:21;;;;;;;;;;;-3.70;49.50;;;-5.79;56.97;103443.78;12250939;19;20258;-86
2024/01/09 02:22:22;;;;;;;;;;;-3.30;49.70;;;-5.98;56.99;103415.59;12252275;19;19926;-86
2024/01/09 02:26:29;;;;;;;;;;;-3.70;49.60;;;-6.14;57.02;103392.63;12250993;19;19914;-87
2024/01/09 02:30:31;;;;;;;;;;;-3.70;49.60;;;-5.91;56.97;103432.03;12250640;19;19919;-86
2024/01/09 02:34:33;;;;;;;;;;;-3.80;49.60;;;-6.02;57.03;103424.72;12251780;19;19931;-86
2024/01/09 02:38:35;;;;;;;;;;;-3.80;49.50;;;-6.06;56.99;103419.38;12248233;19;19919;-86
2024/01/09 02:42:36;;;;;;;;;;;-3.80;49.60;;;-5.99;57.03;103438.38;12254425;19;19922;-86
2024/01/09 02:46:37;;;;;;;;;;;-3.90;49.60;;;-5.96;57.08;103447.09;12248806;19;19919;-86
2024/01/09 02:50:39;;;;;;;;;;;-3.80;49.60;;;-6.03;57.12;103439.88;12252431;19;19943;-86
2024/01/09 02:54:40;;;;;;;;;;;-3.90;49.60;;;-6.03;57.22;103447.53;12251223;19;20425;-86
2024/01/09 02:58:42;;;;;;;;;;;-3.90;49.60;;;-6.02;57.17;103460.34;12249330;19;20350;-87
2024/01/09 03:02:44;;;;;;;;;;;-3.90;49.70;;;-6.41;56.97;103381.78;12250934;19;19915;-86
2024/01/09 03:06:45;;;;;;;;;;;-3.90;49.70;;;-6.04;56.97;103445.78;12248439;19;19923;-86
2024/01/09 03:10:47;;;;;;;;;;;-3.90;49.60;;;-6.27;57.05;103412.25;12250587;19;19926;-86
2024/01/09 03:14:48;;;;;;;;;;;-3.70;49.70;;;-6.25;56.97;103425.94;12246076;19;20308;-86
2024/01/09 03:18:50;;;;;;;;;;;-4.00;49.60;;;-6.22;57.13;103434.56;12246578;19;19922;-86
2024/01/09 03:22:51;;;;;;;;;;;-4.00;49.60;;;-6.26;57.07;103431.84;12248352;19;19926;-86
2024/01/09 03:26:53;;;;;;;;;;;-3.80;49.70;;;-6.25;57.18;103443.75;12248737;19;19935;-87
2024/01/09 03:30:55;;;;;;;;;;;-4.10;49.50;;;-6.32;57.16;103436.56;12247211;19;19932;-86
2024/01/09 03:34:57;;;;;;;;;;;-4.10;49.50;;;-6.35;57.04;103449.06;12247269;19;19925;-86
2024/01/09 03:38:58;;;;;;;;;;;-4.10;49.50;;;-6.40;57.08;103450.47;12247251;19;19922;-86
2024/01/09 03:43:00;;;;;;;;;;;-4.20;49.50;;;-6.48;57.16;103432.25;12247869;19;20265;-86
2024/01/09 03:47:01;;;;;;;;;;;-4.20;49.50;;;-6.45;56.99;103441.72;12247144;19;19907;-87
2024/01/09 03:51:03;;;;;;;;;;;-4.00;49.60;;;-7.00;57.04;103362.25;12247500;19;20243;-86
2024/01/09 03:55:05;;;;;;;;;;;-4.30;49.50;;;-6.76;57.06;103391.63;12245458;19;19919;-86
2024/01/09 03:59:06;;;;;;;;;;;-4.30;49.50;;;-6.57;57.03;103438.47;12249944;19;19964;-86
2024/01/09 04:03:08;;;;;;;;;;;-4.10;49.60;;;-6.87;56.83;103389.25;12248571;19;19911;-86
2024/01/09 04:07:12;;;;;;;;;;;-4.40;49.50;;;-6.62;57.04;103439.84;12245900;19;19926;-86
2024/01/09 04:11:14;;;;;;;;;;;-4.40;49.50;;;-6.97;56.85;103383.59;12247137;19;19910;-86
2024/01/09 04:15:16;;;;;;;;;;;-4.50;49.40;;;-7.03;57.05;103390.00;12246871;19;19923;-87
2024/01/09 04:19:17;;;;;;;;;;;-4.50;49.50;;;-6.69;56.96;103452.19;12247615;19;19915;-86
2024/01/09 04:23:19;;;;;;;;;;;-4.50;49.80;;;-6.76;57.04;103444.09;12248429;19;19930;-86
2024/01/09 04:27:20;;;;;;;;;;;-4.50;49.50;;;-6.78;57.02;103445.66;12248277;19;19945;-86
2024/01/09 04:31:25;;;;;;;;;;;-4.60;49.40;;;-6.84;57.10;103445.31;12260432;19;19924;-87
2024/01/09 04:35:26;;;;;;;;;;;-4.60;49.40;;;-6.93;57.00;103433.81;12257748;19;19915;-87
2024/01/09 04:39:28;;;;;;;;;;;-4.60;49.80;;;-6.92;57.06;103430.47;12261413;19;19907;-87
2024/01/09 04:43:29;;;;;;;;;;;-4.60;49.50;;;-6.94;57.09;103427.00;12258979;19;19919;-87
2024/01/09 04:47:31;;;;;;;;;;;-4.70;49.50;;;-6.80;56.98;103449.81;12257554;19;19915;-87
2024/01/09 04:51:32;;;;;;;;;;;-4.60;49.50;;;-7.00;57.02;103413.91;12258695;19;19949;-87
2024/01/09 04:55:34;;;;;;;;;;;-4.70;49.50;;;-6.88;57.12;103431.56;12255715;19;19919;-87
2024/01/09 04:59:35;;;;;;;;;;;-4.60;49.50;;;-6.80;57.09;103458.31;12260655;19;19918;-87
2024/01/09 05:03:37;;;;;;;;;;;-4.60;49.50;;;-7.10;57.11;103404.00;12259733;19;19915;-87
2024/01/09 05:07:38;;;;;;;;;;;-4.60;49.50;;;-7.26;57.12;103379.34;12256542;19;19907;-87
2024/01/09 05:11:39;;;;;;;;;;;-4.60;49.50;;;-6.91;57.11;103450.03;12257453;19;20003;-87
2024/01/09 05:15:41;;;;;;;;;;;-4.70;49.40;;;-6.97;57.17;103442.00;12255695;19;20296;-87
2024/01/09 05:19:42;;;;;;;;;;;-4.70;49.40;;;-6.90;57.17;103450.91;12260031;19;19982;-86
2024/01/09 05:23:44;;;;;;;;;;;-4.80;49.30;;;-6.99;57.08;103441.06;12255331;19;19934;-87
2024/01/09 05:27:45;;;;;;;;;;;-4.70;49.40;;;-7.44;57.08;103368.94;12253893;19;19941;-86
2024/01/09 05:31:47;;;;;;;;;;;-4.80;49.40;;;-7.07;57.02;103423.59;12251263;19;20602;-87
2024/01/09 05:35:48;;;;;;;;;;;-4.80;49.50;;;-6.95;57.18;103448.06;12258639;19;19915;-87
2024/01/09 05:39:50;;;;;;;;;;;-4.70;49.50;;;-6.99;57.02;103435.13;12255682;19;20337;-87
2024/01/09 05:43:51;;;;;;;;;;;-4.70;49.60;;;-6.88;57.04;103446.81;12260231;19;19923;-87
2024/01/09 05:47:52;;;;;;;;;;;-4.70;49.50;;;-6.87;57.09;103448.53;12254828;19;20234;-87
2024/01/09 05:51:54;;;;;;;;;;;-4.40;49.70;;;-6.86;57.19;103437.59;12256615;19;19914;-87
2024/01/09 05:55:55;;;;;;;;;;;-4.70;49.60;;;-7.03;57.07;103423.88;12258785;19;19948;-87
2024/01/09 05:59:57;;;;;;;;;;;-4.70;49.50;;;-6.90;57.08;103455.97;12257776;19;19923;-86
2024/01/09 06:03:58;;;;;;;;;;;-4.70;49.50;;;-7.01;57.21;103444.31;12253149;19;19922;-87
2024/01/09 06:07:59;;;;;;;;;;;-4.70;49.50;;;-6.96;57.10;103456.50;12252775;19;19919;-87
2024/01/09 06:12:01;;;;;;;;;;;-4.80;49.40;;;-7.13;57.15;103426.63;12254321;19;19910;-87
2024/01/09 06:16:03;;;;;;;;;;;-4.50;49.50;;;-7.17;57.12;103422.16;12254550;19;19918;-87
2024/01/09 06:20:06;;;;;;;;;;;-4.80;49.50;;;-7.06;57.08;103449.09;12256811;19;19919;-87
2024/01/09 06:24:07;;;;;;;;;;;-4.80;49.50;;;-7.00;57.04;103459.63;12257569;19;19978;-87
2024/01/09 06:28:09;;;;;;;;;;;-4.80;49.50;;;-7.26;57.12;103430.09;12253042;19;19930;-87
2024/01/09 06:32:10;;;;;;;;;;;-4.80;49.50;;;-7.08;57.12;103459.94;12254848;19;19921;-87
2024/01/09 06:36:12;;;;;;;;;;;-4.80;49.40;;;-7.06;57.17;103478.69;12253787;19;19922;-87
2024/01/09 06:40:13;;;;;;;;;;;-4.80;49.50;;;-7.18;57.06;103467.00;12256252;19;20646;-87
2024/01/09 06:44:15;;;;;;;;;;;-4.90;49.40;;;-7.15;57.10;103473.94;12255444;19;19926;-87
2024/01/09 06:48:17;;;;;;;;;;;-4.90;49.40;;;-7.27;57.11;103445.22;12254495;19;19919;-86
2024/01/09 06:52:18;;;;;;;;;;;-4.90;49.40;;;-7.21;57.00;103484.59;12252787;19;19915;-87
2024/01/09 06:56:20;;;;;;;;;;;-4.90;49.40;;;-7.84;56.96;103375.72;12255177;19;19918;-87
2024/01/09 07:00:21;;;;;;;;;;;-5.00;49.30;;;-7.30;57.09;103463.69;12255626;19;19923;-88
2024/01/09 07:04:23;;;;;;;;;;;-5.00;49.40;;;-7.80;57.04;103393.78;12254376;19;19907;-89
2024/01/09 07:08:24;;;;;;;;;;;-5.00;49.40;;;-7.85;57.04;103384.13;12251805;19;19918;-88
2024/01/09 07:12:27;;;;;;;;;;;-5.00;49.40;;;-7.55;56.94;103438.44;12255131;19;19938;-87
2024/01/09 07:16:29;;;;;;;;;;;-5.10;49.30;;;-7.31;57.08;103491.53;12256922;19;19944;-88
2024/01/09 07:20:30;;;;;;;;;;;-5.10;49.20;;;-7.50;56.94;103469.19;12254928;19;19918;-87
2024/01/09 07:24:32;;;;;;;;;;;-5.10;49.20;;;-7.50;56.95;103489.47;12254455;19;19923;-89
2024/01/09 07:28:33;;;;;;;;;;;-5.10;49.20;;;-7.48;57.09;103496.41;12252240;19;19935;-89
2024/01/09 07:32:35;;;;;;;;;;;-5.20;49.10;;;-7.61;57.06;103486.25;12251598;19;19918;-90
2024/01/09 07:36:36;;;;;;;;;;;-5.30;49.10;;;-8.12;56.95;103398.47;12254323;19;19921;-88
2024/01/09 07:40:38;;;;;;;;;;;-5.30;49.10;;;-7.72;56.87;103477.06;12255474;19;20381;-90
2024/01/09 07:44:40;;;;;;;;;;;-5.30;49.10;;;-7.84;56.89;103462.81;12255517;19;19925;-89
2024/01/09 07:48:41;;;;;;;;;;;-5.30;49.10;;;-7.64;56.96;103497.09;12252258;19;19914;-89
2024/01/09 07:52:43;;;;;;;;;;;-5.30;49.20;;;-7.72;56.94;103503.34;12249540;19;20002;-88
2024/01/09 07:56:44;;;;;;;;;;;-5.40;49.20;;;-7.62;56.93;103517.47;12253882;19;19915;-89
2024/01/09 08:00:46;;;;;;;;;;;-5.20;49.30;;;-7.65;56.94;103515.59;12250680;19;19941;-87
2024/01/09 08:04:47;;;;;;;;;;;-5.40;49.20;;;-7.63;56.98;103519.13;12251535;19;20314;-88
2024/01/09 08:08:49;;;;;;;;;;;-5.40;49.20;;;-7.81;56.99;103493.44;12248654;19;19939;-88
2024/01/09 08:12:51;;;;;;;;;;;-5.40;49.20;;;-7.86;57.06;103476.19;12249221;19;20334;-87
2024/01/09 08:16:52;;;;;;;;;;;-5.40;49.30;;;-7.63;57.12;103519.13;12253497;19;19918;-87
2024/01/09 08:20:53;;;;;;;;;;;-5.40;49.40;;;-7.86;57.04;103473.66;12253143;19;19922;-87
2024/01/09 08:24:55;;;;;;;;;;;-5.30;49.50;;;-7.52;57.12;103519.81;12252602;19;20321;-87
2024/01/09 08:28:57;;;;;;;;;;;-5.30;49.50;;;-7.48;57.11;103521.78;12252072;19;20260;-87
2024/01/09 08:32:58;;;;;;;;;;;-5.30;49.50;;;-7.43;57.23;103530.53;12253621;19;19922;-85
2024/01/09 08:36:59;;;;;;;;;;;-5.20;49.60;;;-7.45;57.16;103510.94;12252427;19;20381;-87
2024/01/09 08:41:02;;;;;;;;;;;-4.90;49.80;;;-7.95;57.20;103422.34;12255397;19;19915;-88
2024/01/09 08:45:05;;;;;;;;;;;-5.20;49.70;;;-7.69;57.12;103457.00;12246502;19;19926;-88
2024/01/09 08:49:07;;;;;;;;;;;-5.10;49.80;;;-7.28;57.30;103509.47;12248725;19;19919;-88
2024/01/09 08:53:09;;;;;;;;;;;-5.10;49.90;;;-7.53;57.26;103463.88;12238990;19;19952;-88
2024/01/09 08:57:10;;;;;;;;;;;-5.00;49.90;;;-7.33;57.22;103486.34;12233574;19;19951;-88
2024/01/09 09:01:12;;;;;;;;;;;-5.00;50.00;;;-7.43;57.30;103467.09;12240914;19;20413;-88
2024/01/09 09:05:14;;;;;;;;;;;-4.90;50.00;;;-7.06;57.37;103525.25;12244338;19;19911;-87
2024/01/09 09:09:16;;;;;;;;;;;-4.90;50.00;;;-7.02;57.38;103528.88;12244980;19;19907;-87
2024/01/09 09:13:17;;;;;;;;;;;-4.80;50.10;;;-7.07;57.31;103509.91;12249643;19;19926;-87
2024/01/09 09:17:19;;;;;;;;;;;-4.70;50.10;;;-6.96;57.36;103512.34;12253688;19;20320;-87
2024/01/09 09:21:21;;;;;;;;;;;-4.60;50.20;;;-6.88;57.35;103507.75;12254978;19;19935;-88
2024/01/09 09:25:22;;;;;;;;;;;-4.60;50.20;;;-6.79;57.46;103513.38;12254392;19;19919;-87
2024/01/09 09:29:24;;;;;;;;;;;-4.50;50.20;;;-6.66;57.54;103521.78;12253279;19;19923;-87
2024/01/09 09:33:30;;;;;;;;;;;-4.40;50.20;;;-6.93;57.55;103459.22;12250079;19;19935;-86
2024/01/09 09:37:31;;;;;;;;;;;-4.40;50.20;;;-6.58;57.53;103500.25;12252674;19;19922;-87
2024/01/09 09:41:35;;;;;;;;;;;-4.40;50.20;;;-6.59;57.58;103488.31;12256655;19;19925;-87
2024/01/09 09:45:38;;;;;;;;;;;-4.30;50.30;;;-6.60;57.58;103478.94;12253331;19;19914;-86
2024/01/09 09:49:40;;;;;;;;;;;-4.20;50.30;;;-6.44;57.48;103473.97;12253848;19;19994;-87
2024/01/09 09:53:41;;;;;;;;;;;-3.80;50.40;;;-6.32;57.62;103487.41;12254300;19;20333;-87
2024/01/09 09:57:42;;;;;;;;;;;-3.70;50.40;;;-6.34;57.61;103461.03;12252266;19;19961;-86
2024/01/09 10:01:45;;;;;;;;;;;-4.00;50.30;;;-6.19;57.65;103485.56;12254455;19;19915;-87
2024/01/09 10:05:47;;;;;;;;;;;-4.00;50.30;;;-6.13;57.53;103481.75;12247658;19;19910;-86
2024/01/09 10:09:53;;;;;;;;;;;-3.90;50.30;;;-6.34;57.57;103415.25;12254231;19;19930;-87
2024/01/09 10:13:55;;;;;;;;;;;-3.80;50.30;;;-5.95;57.63;103466.63;12252618;19;19923;-87
2024/01/09 10:17:59;;;;;;;;;;;-3.70;50.40;;;-5.85;57.67;103471.44;12248334;19;19942;-87
2024/01/09 10:22:00;;;;;;;;;;;-3.60;50.40;;;-5.70;57.68;103480.72;12248069;19;19918;-87
2024/01/09 10:26:04;;;;;;;;;;;-3.50;50.50;;;-5.74;57.79;103455.91;12248800;19;19939;-87
2024/01/09 10:30:08;;;;;;;;;;;-3.40;50.30;;;-5.81;57.77;103427.53;12252919;19;19911;-86
2024/01/09 10:34:09;;;;;;;;;;;-3.30;50.40;;;-5.39;57.66;103478.22;12253421;19;19922;-86
2024/01/09 10:38:10;;;;;;;;;;;-3.20;50.50;;;-5.32;57.79;103469.22;12249299;19;20394;-87
2024/01/09 10:42:12;;;;;;;;;;;-3.10;50.20;;;-5.25;57.86;103461.13;12253201;19;19911;-86
2024/01/09 10:46:14;;;;;;;;;;;-3.00;50.30;;;-5.21;57.78;103442.66;12250341;19;19932;-86
2024/01/09 10:50:15;;;;;;;;;;;-2.60;50.50;;;-5.05;57.75;103458.00;12251023;19;19915;-87
2024/01/09 10:54:18;;;;;;;;;;;-2.80;50.40;;;-4.88;57.82;103465.66;12253019;19;19922;-87
2024/01/09 10:58:20;;;;;;;;;;;-2.70;50.60;;;-4.75;57.80;103468.03;12246793;19;19915;-86
2024/01/09 11:02:22;;;;;;;;;;;-2.60;50.60;;;-4.74;57.85;103444.31;12250006;19;19915;-87
2024/01/09 11:06:24;;;;;;;;;;;-2.50;50.50;;;-4.65;57.79;103446.44;12249904;19;19942;-87
2024/01/09 11:10:25;;;;;;;;;;;-2.20;50.50;;;-4.59;57.75;103439.09;12249844;19;19914;-87
2024/01/09 11:14:27;;;;;;;;;;;-2.20;50.50;;;-4.57;57.70;103432.41;12249191;19;19931;-86
2024/01/09 11:18:29;;;;;;;;;;;-2.20;50.40;;;-4.38;57.98;103447.84;12246852;19;19986;-86
2024/01/09 11:22:36;;;;;;;;;;;-1.90;50.60;;;-4.54;57.84;103410.50;12249036;19;20330;-87
2024/01/09 11:26:39;;;;;;;;;;;-2.10;50.50;;;-4.57;57.92;103384.84;12242650;19;19915;-87
2024/01/09 11:30:41;;;;;;;;;;;-1.60;50.60;;;-4.24;57.96;103426.47;12249081;19;19979;-87
2024/01/09 11:35:05;;;;;;;;;;;-1.90;50.50;;;-4.06;57.92;103451.13;12245317;19;19927;-86
2024/01/09 11:39:09;;;;;;;;;;;-1.80;50.40;;;-4.29;57.77;103386.25;12246509;19;19922;-87
2024/01/09 11:43:10;;;;;;;;;;;-1.80;50.40;;;-4.07;57.81;103408.56;12246735;19;19922;-86
2024/01/09 11:47:12;;;;;;;;;;;-1.40;50.40;;;-3.95;57.79;103408.28;12246705;19;20692;-86
2024/01/09 11:51:13;;;;;;;;;;;-1.30;50.50;;;-3.74;57.90;103426.28;12249010;19;19929;-86
2024/01/09 11:55:16;;;;;;;;;;;-1.50;50.40;;;-3.65;57.83;103431.81;12247744;19;19986;-86
2024/01/09 11:59:18;;;;;;;;;;;-1.10;50.60;;;-3.68;57.75;103416.34;12249242;19;19922;-86
2024/01/09 12:03:19;;;;;;;;;;;-1.40;50.40;;;-3.62;57.91;103404.78;12249304;19;19915;-87
2024/01/09 12:07:21;;;;;;;;;;;-1.30;50.50;;;-3.81;57.81;103349.44;12246715;19;19939;-87
2024/01/09 12:11:23;;;;;;;;;;;-1.00;50.30;;;-3.45;57.67;103397.00;12247468;19;20264;-87
2024/01/09 12:15:26;;;;;;;;;;;-0.80;50.50;;;-3.43;57.84;103377.50;12246080;19;20273;-89
2024/01/09 12:19:29;;;;;;;;;;;-1.10;50.40;;;-3.42;57.87;103369.06;12248525;19;19922;-88
2024/01/09 12:23:30;;;;;;;;;;;-0.80;50.40;;;-3.22;57.91;103386.13;12245815;19;20258;-87
2024/01/09 12:27:34;;;;;;;;;;;-1.00;50.30;;;-3.46;57.83;103319.50;12246037;19;19943;-89
2024/01/09 12:31:37;;;;;;;;;;;-0.90;50.40;;;-3.06;57.77;103374.03;12239115;19;19919;-89
2024/01/09 12:35:42;;;;;;;;;;;-0.80;49.60;;;-2.96;57.83;103365.97;12248237;19;19915;-87
2024/01/09 12:39:44;;;;;;;;;;;-0.70;50.30;;;-2.84;57.82;103379.25;12243897;19;20358;-87
2024/01/09 12:43:46;;;;;;;;;;;-0.40;50.40;;;-2.74;57.75;103378.00;12244016;19;19922;-90
2024/01/09 12:47:47;;;;;;;;;;;-0.50;50.40;;;-2.70;57.82;103372.19;12249048;19;19918;-87
2024/01/09 12:51:50;;;;;;;;;;;-0.50;50.10;;;-2.96;57.75;103314.84;12253662;19;20296;-86
2024/01/09 12:56:20;;;;;;;;;;;-0.40;50.40;;;-2.55;57.84;103385.63;12255081;19;19919;-87
2024/01/09 13:00:22;;;;;;;;;;;-0.40;50.20;;;-2.54;57.74;103360.91;12253247;19;19919;-87
2024/01/09 13:04:23;;;;;;;;;;;0.00;50.40;;;-2.73;57.68;103313.25;12253829;19;19927;-87
2024/01/09 13:08:25;;;;;;;;;;;-0.30;50.20;;;-2.53;57.74;103335.41;12252543;19;19934;-87
2024/01/09 13:12:27;;;;;;;;;;;-0.20;50.10;;;-2.37;57.66;103365.06;12250159;19;19922;-88
2024/01/09 13:16:28;;;;;;;;;;;0.20;50.40;;;-2.45;57.59;103341.72;12255382;19;19961;-87
2024/01/09 13:20:30;;;;;;;;;;;-0.20;50.10;;;-2.26;57.70;103362.94;12257354;19;19944;-87
2024/01/09 13:24:31;;;;;;;;;;;0.20;50.30;;;-2.40;57.72;103323.09;12258628;19;20348;-87
2024/01/09 13:28:33;;;;;;;;;;;0.00;50.30;;;-2.17;57.88;103354.75;12255645;19;19945;-87
2024/01/09 13:32:34;;;;;;;;;;;0.40;50.20;;;-2.13;57.84;103351.47;12255402;19;19939;-87
2024/01/09 13:36:36;;;;;;;;;;;0.10;50.10;;;-2.10;57.78;103343.94;12255644;19;19918;-86
2024/01/09 13:40:38;;;;;;;;;;;0.10;50.00;;;-2.17;57.61;103330.03;12254298;19;19927;-87
2024/01/09 13:44:39;;;;;;;;;;;0.20;50.30;;;-2.05;57.65;103321.97;12252928;19;19926;-87
2024/01/09 13:48:42;;;;;;;;;;;0.20;50.20;;;-2.00;57.58;103325.56;12245070;19;19918;-87
2024/01/09 13:52:44;;;;;;;;;;;0.40;50.20;;;-1.92;57.68;103331.84;12252601;19;20350;-86
2024/01/09 13:56:46;;;;;;;;;;;0.30;50.60;;;-1.83;57.67;103336.47;12253586;19;20546;-86
2024/01/09 14:00:47;;;;;;;;;;;0.30;49.80;;;-1.75;57.76;103347.00;12254066;19;20328;-87
2024/01/09 14:04:49;;;;;;;;;;;0.40;49.80;;;-1.70;57.56;103350.59;12254847;19;19927;-87
2024/01/09 14:08:50;;;;;;;;;;;0.70;49.60;;;-1.64;57.56;103346.59;12249938;19;19922;-87
2024/01/09 14:12:51;;;;;;;;;;;0.50;49.50;;;-1.70;57.56;103330.09;12254583;19;19926;-87
2024/01/09 14:16:53;;;;;;;;;;;0.50;49.00;;;-1.70;57.53;103318.19;12254478;19;19934;-87
2024/01/09 14:20:54;;;;;;;;;;;0.80;49.40;;;-1.64;57.42;103335.47;12256218;19;20273;-87
2024/01/09 14:24:55;;;;;;;;;;;0.50;49.30;;;-1.64;57.33;103340.59;12254318;19;19927;-87
2024/01/09 14:28:57;;;;;;;;;;;0.50;49.50;;;-1.74;57.65;103320.56;12251826;19;19964;-86
2024/01/09 14:32:58;;;;;;;;;;;0.50;49.70;;;-1.71;57.49;103333.47;12248802;19;19911;-87
2024/01/09 14:37:01;;;;;;;;;;;0.80;49.90;;;-1.62;57.45;103346.63;12251302;19;19915;-87
2024/01/09 14:41:02;;;;;;;;;;;0.50;49.80;;;-1.70;57.49;103328.44;12254540;19;19907;-87
2024/01/09 14:45:07;;;;;;;;;;;0.50;49.60;;;-1.71;57.32;103330.91;12252416;19;19992;-87
2024/01/09 14:49:09;;;;;;;;;;;0.50;49.70;;;-1.82;57.48;103310.91;12252221;19;19943;-87
2024/01/09 14:53:10;;;;;;;;;;;0.50;49.90;;;-1.84;57.43;103311.66;12248568;19;19918;-87
2024/01/09 14:57:13;;;;;;;;;;;0.40;49.80;;;-1.96;57.36;103291.59;12250007;19;20287;-87
2024/01/09 15:01:15;;;;;;;;;;;0.40;49.70;;;-1.88;57.34;103314.94;12253473;19;19925;-87
2024/01/09 15:05:16;;;;;;;;;;;0.40;49.70;;;-1.85;57.41;103320.16;12251121;19;19935;-86
2024/01/09 15:09:18;;;;;;;;;;;0.30;49.50;;;-1.91;57.29;103315.69;12253420;19;19919;-87
2024/01/09 15:13:20;;;;;;;;;;;0.60;49.30;;;-1.91;57.46;103314.81;12247816;19;19918;-87
2024/01/09 15:17:21;;;;;;;;;;;0.20;49.30;;;-1.92;57.32;103324.16;12248675;19;20408;-87
2024/01/09 15:21:22;;;;;;;;;;;0.20;49.60;;;-1.90;57.25;103327.66;12250533;19;19915;-86
2024/01/09 15:25:25;;;;;;;;;;;0.20;49.50;;;-1.96;57.23;103319.75;12248535;19;19923;-87
2024/01/09 15:29:26;;;;;;;;;;;0.10;49.50;;;-1.98;57.28;103318.81;12253172;19;19927;-87
2024/01/09 15:33:28;;;;;;;;;;;0.10;49.60;;;-2.11;57.27;103309.78;12248928;19;20266;-87
2024/01/09 15:37:29;;;;;;;;;;;0.00;49.70;;;-2.02;57.33;103329.75;12250680;19;19923;-86
2024/01/09 15:41:34;;;;;;;;;;;0.10;49.80;;;-2.03;57.37;103328.88;12250423;19;19930;-87
2024/01/09 15:45:35;;;;;;;;;;;0.10;49.90;;;-2.16;57.33;103307.84;12248767;19;19925;-87
2024/01/09 15:49:38;;;;;;;;;;;0.00;49.90;;;-2.02;57.42;103327.19;12252128;19;19942;-87
2024/01/09 15:53:42;;;;;;;;;;;0.00;49.90;;;-2.13;57.16;103315.66;12243628;19;20352;-87
2024/01/09 15:57:44;;;;;;;;;;;0.00;49.90;;;-2.17;57.21;103306.13;12243984;19;19974;-87
2024/01/09 16:01:45;;;;;;;;;;;0.00;49.90;;;-2.15;57.14;103332.66;12248274;19;19915;-87
2024/01/09 16:05:47;;;;;;;;;;;-0.10;50.00;;;-2.42;56.94;103283.81;12244308;19;19949;-86
2024/01/09 16:09:48;;;;;;;;;;;-0.10;50.00;;;-2.25;56.86;103329.72;12247468;19;19914;-87
2024/01/09 16:13:49;;;;;;;;;;;0.10;50.00;;;-2.34;57.17;103324.25;12240225;19;19932;-87
2024/01/09 16:17:51;;;;;;;;;;;0.10;49.90;;;-2.46;57.07;103303.25;12244880;19;19915;-87
2024/01/09 16:21:52;;;;;;;;;;;-0.30;49.80;;;-2.40;57.05;103321.44;12244656;19;19978;-87
2024/01/09 16:25:54;;;;;;;;;;;-0.30;49.80;;;-2.49;57.14;103318.50;12246874;19;20353;-87
2024/01/09 16:29:56;;;;;;;;;;;-0.30;49.90;;;-2.52;57.18;103326.03;12246763;19;19918;-87
2024/01/09 16:33:57;;;;;;;;;;;-0.50;49.80;;;-2.88;57.18;103275.16;12246669;19;19956;-87
2024/01/09 16:37:59;;;;;;;;;;;-0.50;49.90;;;-2.64;57.11;103317.88;12240968;19;19934;-86
2024/01/09 16:42:00;;;;;;;;;;;-0.60;49.90;;;-2.75;57.03;103305.53;12242461;19;19939;-86
2024/01/09 16:46:01;;;;;;;;;;;-0.60;50.00;;;-2.66;57.05;103322.94;12243833;19;19937;-87
2024/01/09 16:50:04;;;;;;;;;;;-0.60;50.00;;;-2.78;56.97;103317.28;12241393;19;19952;-87
2024/01/09 16:54:05;;;;;;;;;;;-0.70;50.00;;;-2.84;56.96;103315.34;12239725;19;19929;-86
2024/01/09 16:58:07;;;;;;;;;;;-0.70;49.90;;;-3.09;56.92;103281.91;12236516;19;19927;-86
2024/01/09 17:02:11;;;;;;;;;;;-0.80;50.20;;;-3.05;56.84;103304.22;12243785;19;19939;-86
2024/01/09 17:06:12;;;;;;;;;;;-0.90;49.70;;;-3.19;56.98;103289.16;12247899;19;19939;-86
2024/01/09 17:10:14;;;;;;;;;;;-1.00;49.70;;;-3.06;57.10;103317.81;12246386;19;19911;-86
2024/01/09 17:14:15;;;;;;;;;;;-1.00;49.80;;;-3.37;56.82;103270.50;12247284;19;20401;-86
2024/01/09 17:18:19;;;;;;;;;;;-1.00;49.80;;;-3.18;57.06;103306.25;12243411;19;20330;-86
2024/01/09 17:22:21;;;;;;;;;;;-1.10;49.90;;;-3.21;57.02;103316.34;12246538;19;20337;-86
2024/01/09 17:26:22;;;;;;;;;;;-1.10;49.90;;;-3.46;56.98;103270.97;12244940;19;19963;-86
2024/01/09 17:30:24;;;;;;;;;;;-0.90;50.00;;;-3.28;56.98;103303.25;12243657;19;19915;-86
2024/01/09 17:34:25;;;;;;;;;;;-1.20;49.90;;;-3.30;56.84;103315.94;12243070;19;19927;-86
2024/01/09 17:38:27;;;;;;;;;;;-0.90;49.90;;;-3.42;56.83;103302.63;12252884;19;19914;-86
2024/01/09 17:42:31;;;;;;;;;;;-1.40;49.70;;;-3.47;56.78;103317.75;12257125;19;19936;-86
2024/01/09 17:46:32;;;;;;;;;;;-1.20;49.70;;;-3.67;56.78;103298.09;12254336;19;19996;-87
2024/01/09 17:50:34;;;;;;;;;;;-1.50;49.50;;;-3.97;56.77;103266.97;12254983;19;19919;-86
2024/01/09 17:54:36;;;;;;;;;;;-1.60;49.50;;;-3.87;56.86;103297.22;12253350;19;19923;-87
2024/01/09 17:58:37;;;;;;;;;;;-1.70;49.60;;;-4.02;56.84;103282.94;12251886;19;19927;-86
2024/01/09 18:02:42;;;;;;;;;;;-1.80;49.60;;;-4.14;56.91;103268.75;12256236;19;19915;-86
2024/01/09 18:06:46;;;;;;;;;;;-1.90;49.70;;;-3.95;56.83;103309.59;12252694;19;19931;-87